createdAt,value
2023-03-18T00:16:16.927Z,98259.47
2023-03-18T00:36:20.056Z,98277.06
2023-03-18T00:56:23.611Z,98269.38
2023-03-18T01:16:26.248Z,98240.41
2023-03-18T01:36:29.983Z,98225.31
2023-03-18T01:56:32.780Z,98199.09
2023-03-18T02:16:35.521Z,98201.28
2023-03-18T02:36:38.417Z,98192.63
2023-03-18T02:56:41.128Z,98189.59
2023-03-18T03:16:43.544Z,98188.91
2023-03-18T03:36:46.150Z,98192.16
2023-03-18T03:56:49.154Z,98201.41
2023-03-18T04:16:51.942Z,98201.16
2023-03-18T04:36:54.639Z,98207.12
2023-03-18T04:56:57.272Z,98201.16
2023-03-18T05:16:59.843Z,98192.34
2023-03-18T05:37:03.335Z,98218.47
2023-03-18T05:57:06.414Z,98225.06
2023-03-18T06:37:54.947Z,98237.50
2023-03-18T06:57:58.401Z,98244.16
2023-03-18T07:18:01.745Z,98257.22
2023-03-18T07:38:04.463Z,98289.09
2023-03-18T07:58:08.727Z,98290.22
2023-03-18T08:18:11.389Z,98284.22
2023-03-18T08:38:14.076Z,98281.44
2023-03-18T08:58:18.504Z,98280.41
2023-03-18T09:18:21.115Z,98272.63
2023-03-18T09:38:24.602Z,98270.78
2023-03-18T09:58:27.024Z,98247.66
2023-03-18T10:18:29.782Z,98237.47
2023-03-18T10:38:32.393Z,98239.03
2023-03-18T10:58:34.980Z,98230.03
2023-03-18T11:18:37.695Z,98217.91
2023-03-18T11:38:40.119Z,98210.19
2023-03-18T11:58:43.460Z,98197.75
2023-03-18T12:18:46.259Z,98173.19
2023-03-18T12:38:48.692Z,98156.59
2023-03-18T12:58:52.241Z,98142.25
2023-03-18T13:18:58.608Z,98140.87
2023-03-18T13:39:01.062Z,98126.97
2023-03-18T13:59:03.880Z,98106.84
2023-03-18T14:19:07.261Z,98101.84
2023-03-18T14:39:10.287Z,98080.81
2023-03-18T14:59:13.622Z,98073.31
2023-03-18T15:19:16.886Z,98066.59
2023-03-18T15:39:19.377Z,98067.13
2023-03-18T15:59:22.144Z,98066.38
2023-03-18T16:19:29.361Z,98077.47
2023-03-18T16:39:35.327Z,98090.84
2023-03-18T16:59:38.121Z,98102.53
2023-03-18T17:19:41.325Z,98114.88
2023-03-18T17:39:43.818Z,98123.53
2023-03-18T17:59:46.506Z,98146.94
2023-03-18T18:19:49.163Z,98149.63
2023-03-18T18:39:51.615Z,98148.69
2023-03-18T18:59:54.397Z,98149.63
2023-03-18T19:19:57.000Z,98163.50
2023-03-18T19:39:59.425Z,98169.41
2023-03-18T20:00:02.306Z,98163.75
2023-03-18T20:20:05.944Z,98185.47
2023-03-18T20:40:08.582Z,98186.31
2023-03-18T21:00:11.982Z,98190.59
2023-03-18T21:20:21.828Z,98185.34
2023-03-18T21:40:24.724Z,98191.88
2023-03-18T22:00:27.437Z,98184.34
2023-03-18T22:20:30.109Z,98182.53
2023-03-18T22:40:33.036Z,98184.84
2023-03-18T23:00:35.574Z,98192.00
2023-03-18T23:20:38.276Z,98192.88
2023-03-18T23:40:40.793Z,98202.97
